createdAt,value
2019-03-19T00:00:27.251Z,59.73
2019-03-19T00:02:55.728Z,53.90
2019-03-19T00:05:26.459Z,49.13
2019-03-19T00:07:54.979Z,63.23
2019-03-19T00:10:25.468Z,80.40
2019-03-19T00:12:58.344Z,74.27
2019-03-19T00:15:28.924Z,62.67
2019-03-19T00:17:59.748Z,60.23
2019-03-19T00:20:30.330Z,68.23
2019-03-19T00:23:01.072Z,76.07
2019-03-19T00:25:31.849Z,77.03
2019-03-19T00:28:02.565Z,75.67
2019-03-19T00:30:33.293Z,79.97
2019-03-19T00:33:03.936Z,67.67
2019-03-19T00:35:36.887Z,39.73
2019-03-19T00:38:05.135Z,46.93
2019-03-19T00:40:38.193Z,40.93
2019-03-19T00:43:08.896Z,30.67
2019-03-19T00:45:38.238Z,25.97
2019-03-19T00:48:06.860Z,24.93
2019-03-19T00:50:35.106Z,25.60
2019-03-19T00:53:05.799Z,28.63
2019-03-19T00:55:40.757Z,32.80
2019-03-19T00:58:06.281Z,31.33
2019-03-19T01:00:39.232Z,48.17
2019-03-19T01:03:09.971Z,34.13
2019-03-19T01:05:40.454Z,29.03
2019-03-19T01:08:08.633Z,25.90
2019-03-19T01:10:39.220Z,29.43
2019-03-19T01:13:09.849Z,28.70
2019-03-19T01:15:37.999Z,38.93
2019-03-19T01:18:11.126Z,37.53
2019-03-19T01:20:39.323Z,38.40
2019-03-19T01:23:12.012Z,38.13
2019-03-19T01:25:54.724Z,41.33
2019-03-19T01:28:17.493Z,40.00
2019-03-19T01:30:48.212Z,34.67
2019-03-19T01:33:16.490Z,40.13
2019-03-19T01:35:49.588Z,36.77
2019-03-19T01:38:17.768Z,38.43
2019-03-19T01:40:50.590Z,26.63
2019-03-19T01:43:21.224Z,32.93
2019-03-19T01:45:52.315Z,30.37
2019-03-19T01:48:26.331Z,28.97
2019-03-19T01:50:59.301Z,26.03
2019-03-19T01:53:29.833Z,27.63
2019-03-19T01:56:05.116Z,30.90
2019-03-19T01:58:32.798Z,21.90
2019-03-19T02:01:00.956Z,20.77
2019-03-19T02:03:31.635Z,23.30
2019-03-19T02:05:59.820Z,16.27
2019-03-19T02:08:30.556Z,16.50
2019-03-19T02:11:01.487Z,15.77
2019-03-19T02:13:34.341Z,15.60
2019-03-19T02:16:04.915Z,14.83
2019-03-19T02:18:33.279Z,20.77
2019-03-19T02:21:04.009Z,22.50
2019-03-19T02:23:32.279Z,19.33
2019-03-19T02:26:15.570Z,42.50
2019-03-19T02:28:34.839Z,66.23
2019-03-19T02:31:05.736Z,55.13
2019-03-19T02:33:34.192Z,44.73
2019-03-19T02:36:02.370Z,39.03
2019-03-19T02:38:35.449Z,37.10
2019-03-19T02:41:08.280Z,27.13
2019-03-19T02:43:36.432Z,34.53
2019-03-19T02:46:04.617Z,25.37
2019-03-19T02:48:32.957Z,74.90
2019-03-19T02:51:02.160Z,43.23
2019-03-19T02:53:30.322Z,92.83
2019-03-19T02:56:03.060Z,48.63
2019-03-19T02:58:42.708Z,68.70
2019-03-19T03:01:13.301Z,55.00
2019-03-19T03:03:44.213Z,41.50
2019-03-19T03:06:17.194Z,45.80
2019-03-19T03:08:47.715Z,48.30
2019-03-19T03:11:18.338Z,46.50
2019-03-19T03:13:51.369Z,43.07
2019-03-19T03:16:19.556Z,37.47
2019-03-19T03:18:50.221Z,37.97
2019-03-19T03:21:18.398Z,34.67
2019-03-19T03:23:46.534Z,32.17
2019-03-19T03:26:17.235Z,32.83
2019-03-19T03:28:50.170Z,32.60
2019-03-19T03:31:22.864Z,38.90
2019-03-19T03:33:53.543Z,38.47
2019-03-19T03:36:21.694Z,41.17
2019-03-19T03:38:54.598Z,34.87
2019-03-19T03:41:23.084Z,37.83
2019-03-19T03:43:53.599Z,40.77
2019-03-19T03:46:24.208Z,34.03
2019-03-19T03:48:52.776Z,36.07
2019-03-19T03:51:21.399Z,37.97
2019-03-19T03:53:52.945Z,41.30
2019-03-19T03:56:21.189Z,48.97
2019-03-19T03:59:00.501Z,38.03
2019-03-19T04:01:24.148Z,36.73
2019-03-19T04:03:55.145Z,35.57
2019-03-19T04:06:25.770Z,40.80
2019-03-19T04:08:56.383Z,32.40
2019-03-19T04:11:27.010Z,39.13
2019-03-19T04:13:55.154Z,33.63
2019-03-19T04:16:23.348Z,32.73
2019-03-19T04:18:51.536Z,32.07
2019-03-19T04:21:19.935Z,28.40
2019-03-19T04:23:48.091Z,30.80
2019-03-19T04:26:16.460Z,77.90
2019-03-19T04:28:44.719Z,53.53
2019-03-19T04:31:12.913Z,58.67
2019-03-19T04:33:41.235Z,52.47
2019-03-19T04:36:09.372Z,52.23
2019-03-19T04:38:37.648Z,47.53
2019-03-19T04:41:06.355Z,54.03
2019-03-19T04:43:34.479Z,57.50
2019-03-19T04:46:02.788Z,55.73
2019-03-19T04:48:30.978Z,65.00
2019-03-19T04:50:59.146Z,91.50
2019-03-19T04:53:27.328Z,75.83
2019-03-19T04:55:56.696Z,59.17
2019-03-19T04:58:24.846Z,54.43
2019-03-19T05:00:53.045Z,54.20
2019-03-19T05:03:21.526Z,52.50
2019-03-19T05:05:49.690Z,55.00
2019-03-19T05:08:17.836Z,56.13
2019-03-19T05:10:46.146Z,56.87
2019-03-19T05:13:14.632Z,55.23
2019-03-19T05:15:42.816Z,54.30
2019-03-19T05:18:13.425Z,56.37
2019-03-19T05:20:41.613Z,54.97
2019-03-19T05:23:09.795Z,56.63
2019-03-19T05:25:37.973Z,56.20
2019-03-19T05:28:06.354Z,62.33
2019-03-19T05:30:34.502Z,60.90
2019-03-19T05:33:02.688Z,70.03
2019-03-19T05:35:30.889Z,343.83
2019-03-19T05:37:59.297Z,482.37
2019-03-19T05:40:27.731Z,734.63
2019-03-19T05:42:55.974Z,838.70
2019-03-19T05:45:24.111Z,672.00
2019-03-19T05:47:52.556Z,615.10
2019-03-19T05:50:22.062Z,632.50
2019-03-19T05:52:50.209Z,211.70
2019-03-19T05:55:18.508Z,149.23
2019-03-19T05:57:49.815Z,208.87
2019-03-19T06:00:28.040Z,159.93
2019-03-19T06:02:56.469Z,179.27
2019-03-19T06:05:24.787Z,173.10
2019-03-19T06:07:52.974Z,168.93
2019-03-19T06:10:21.339Z,158.23
2019-03-19T06:12:49.581Z,135.33
2019-03-19T06:15:17.836Z,141.20
2019-03-19T06:17:45.998Z,133.00
2019-03-19T06:20:14.922Z,130.00
2019-03-19T06:22:43.152Z,139.63
2019-03-19T06:25:13.107Z,132.40
2019-03-19T06:27:41.379Z,182.27
2019-03-19T06:30:11.435Z,235.63
2019-03-19T06:32:39.836Z,268.40
2019-03-19T06:35:08.697Z,249.67
2019-03-19T06:37:36.935Z,227.70
2019-03-19T06:40:06.988Z,200.17
2019-03-19T06:42:35.464Z,145.73
2019-03-19T06:45:04.612Z,175.43
2019-03-19T06:47:32.774Z,191.33
2019-03-19T06:50:01.011Z,159.37
2019-03-19T06:52:29.195Z,170.10
2019-03-19T06:54:57.388Z,82.77
2019-03-19T06:57:25.791Z,67.17
2019-03-19T06:59:55.307Z,60.13
2019-03-19T07:02:23.490Z,57.97
2019-03-19T07:04:51.618Z,69.00
2019-03-19T07:07:19.856Z,109.87
2019-03-19T07:09:48.594Z,107.93
2019-03-19T07:12:16.743Z,82.57
2019-03-19T07:14:45.133Z,75.37
2019-03-19T07:17:13.325Z,53.83
2019-03-19T07:19:41.762Z,32.83
2019-03-19T07:22:09.910Z,23.60
2019-03-19T07:24:38.100Z,15.13
2019-03-19T07:27:06.451Z,13.87
2019-03-19T07:29:34.941Z,9.20
2019-03-19T07:32:03.086Z,13.20
2019-03-19T07:34:31.401Z,11.10
2019-03-19T07:36:59.710Z,13.93
2019-03-19T07:39:27.963Z,17.63
2019-03-19T07:41:56.144Z,25.80
2019-03-19T07:44:24.335Z,16.50
2019-03-19T07:46:52.631Z,15.13
2019-03-19T07:49:20.787Z,15.03
2019-03-19T07:51:49.307Z,16.00
2019-03-19T07:54:17.531Z,7.00
2019-03-19T07:56:45.678Z,8.63
2019-03-19T07:59:13.907Z,6.27
2019-03-19T08:01:42.989Z,10.17
2019-03-19T08:04:11.145Z,10.03
2019-03-19T08:06:39.692Z,13.00
2019-03-19T08:09:07.860Z,9.13
2019-03-19T08:11:36.043Z,7.03
2019-03-19T08:14:04.425Z,5.93
2019-03-19T08:16:32.584Z,7.17
2019-03-19T08:19:00.728Z,6.33
2019-03-19T08:21:28.911Z,8.70
2019-03-19T08:23:58.791Z,5.83
2019-03-19T08:26:27.328Z,7.00
2019-03-19T08:28:55.810Z,7.77
2019-03-19T08:31:23.951Z,6.57
2019-03-19T08:33:52.304Z,9.37
2019-03-19T08:36:20.503Z,8.33
2019-03-19T08:38:48.796Z,8.03
2019-03-19T08:41:16.946Z,11.53
2019-03-19T08:43:45.180Z,6.27
2019-03-19T08:46:13.463Z,7.73
2019-03-19T08:48:41.785Z,14.03
2019-03-19T08:51:10.256Z,10.47
2019-03-19T08:53:38.588Z,12.93
2019-03-19T08:56:06.913Z,8.83
2019-03-19T08:58:35.105Z,5.27
2019-03-19T09:01:03.482Z,9.83
2019-03-19T09:03:33.081Z,11.80
2019-03-19T09:06:01.432Z,11.90
2019-03-19T09:08:29.682Z,9.90
2019-03-19T09:10:57.865Z,15.47
2019-03-19T09:13:26.092Z,9.83
2019-03-19T09:15:54.356Z,14.07
2019-03-19T09:18:22.503Z,11.53
2019-03-19T09:20:50.750Z,21.93
2019-03-19T09:23:18.962Z,15.87
2019-03-19T09:25:47.221Z,16.97
2019-03-19T09:28:15.529Z,8.27
2019-03-19T09:30:44.048Z,8.20
2019-03-19T09:33:12.335Z,6.43
2019-03-19T09:35:40.862Z,10.40
2019-03-19T09:38:08.987Z,8.47
2019-03-19T09:40:37.605Z,7.10
2019-03-19T09:43:06.966Z,12.47
2019-03-19T09:45:35.429Z,33.77
2019-03-19T09:48:03.616Z,8.80
2019-03-19T09:50:31.919Z,10.90
2019-03-19T09:53:00.348Z,8.80
2019-03-19T09:55:28.560Z,8.27
2019-03-19T09:57:56.754Z,10.23
2019-03-19T10:00:24.934Z,6.83
2019-03-19T10:02:53.180Z,7.67
2019-03-19T10:05:22.042Z,8.27
2019-03-19T10:07:50.323Z,6.30
2019-03-19T10:10:19.150Z,3.70
2019-03-19T10:12:47.807Z,5.07
2019-03-19T10:15:15.960Z,5.60
2019-03-19T10:17:44.123Z,6.83
2019-03-19T10:20:17.899Z,5.93
2019-03-19T10:22:46.077Z,5.37
2019-03-19T10:25:14.869Z,9.63
2019-03-19T10:27:43.512Z,5.90
2019-03-19T10:30:18.339Z,5.97
2019-03-19T10:32:46.570Z,10.13
2019-03-19T10:35:14.829Z,7.67
2019-03-19T10:37:43.104Z,7.77
2019-03-19T10:40:12.543Z,6.47
2019-03-19T10:42:40.775Z,6.57
2019-03-19T10:45:10.859Z,18.53
2019-03-19T10:47:39.239Z,7.93
2019-03-19T10:50:09.170Z,7.93
2019-03-19T10:52:37.631Z,8.40
2019-03-19T10:55:06.427Z,4.67
2019-03-19T10:57:34.784Z,9.10
2019-03-19T11:00:08.702Z,11.07
2019-03-19T11:02:36.958Z,8.30
2019-03-19T11:05:06.918Z,7.57
2019-03-19T11:07:36.126Z,8.73
2019-03-19T11:10:05.954Z,9.20
2019-03-19T11:12:34.205Z,8.37
2019-03-19T11:15:02.348Z,16.00
2019-03-19T11:17:30.869Z,15.57
2019-03-19T11:19:59.009Z,10.80
2019-03-19T11:22:27.532Z,8.20
2019-03-19T11:24:55.746Z,8.43
2019-03-19T11:27:24.096Z,13.00
2019-03-19T11:29:59.815Z,22.73
2019-03-19T11:32:22.688Z,10.60
2019-03-19T11:34:51.006Z,10.03
2019-03-19T11:37:19.851Z,9.00
2019-03-19T11:39:48.585Z,12.40
2019-03-19T11:42:17.076Z,12.67
2019-03-19T11:44:45.908Z,15.93
2019-03-19T11:47:14.083Z,12.60
2019-03-19T11:49:42.447Z,17.43
2019-03-19T11:52:10.969Z,16.27
2019-03-19T11:54:39.822Z,19.87
2019-03-19T11:57:08.178Z,12.87
2019-03-19T11:59:36.581Z,13.60
2019-03-19T12:02:05.056Z,15.83
2019-03-19T12:04:33.745Z,17.10
2019-03-19T12:07:01.986Z,15.57
2019-03-19T12:09:31.592Z,15.73
2019-03-19T12:11:59.988Z,12.37
2019-03-19T12:14:28.202Z,9.33
2019-03-19T12:16:56.758Z,10.37
2019-03-19T12:19:25.898Z,9.97
2019-03-19T12:21:54.559Z,10.47
2019-03-19T12:24:23.818Z,10.97
2019-03-19T12:26:52.316Z,9.57
2019-03-19T12:29:20.834Z,11.10
2019-03-19T12:31:49.456Z,9.67
2019-03-19T12:34:21.477Z,9.87
2019-03-19T12:36:49.825Z,10.83
2019-03-19T12:39:18.932Z,8.90
2019-03-19T12:41:48.605Z,9.43
2019-03-19T12:44:17.006Z,10.67
2019-03-19T12:46:45.279Z,7.83
2019-03-19T12:49:13.540Z,10.27
2019-03-19T12:51:41.934Z,8.80
2019-03-19T12:54:10.731Z,11.53
2019-03-19T12:56:40.165Z,11.37
2019-03-19T12:59:19.489Z,8.53
2019-03-19T13:01:38.537Z,14.13
2019-03-19T13:04:07.015Z,12.60
2019-03-19T13:06:35.456Z,11.83
2019-03-19T13:09:05.790Z,9.93
2019-03-19T13:11:35.253Z,9.73
2019-03-19T13:14:03.884Z,8.87
2019-03-19T13:16:32.107Z,11.00
2019-03-19T13:19:00.842Z,10.73
2019-03-19T13:21:29.305Z,9.33
2019-03-19T13:23:58.693Z,9.17
2019-03-19T13:26:26.885Z,13.43
2019-03-19T13:28:55.379Z,11.00
2019-03-19T13:31:23.736Z,21.43
2019-03-19T13:33:52.125Z,14.93
2019-03-19T13:36:21.003Z,8.93
2019-03-19T13:38:50.987Z,10.87
2019-03-19T13:41:19.313Z,12.43
2019-03-19T13:43:47.447Z,13.43
2019-03-19T13:46:15.646Z,9.50
2019-03-19T13:48:44.849Z,10.57
2019-03-19T13:51:13.752Z,7.47
2019-03-19T13:53:42.524Z,13.00
2019-03-19T13:56:10.938Z,9.97
2019-03-19T13:58:39.732Z,33.17
2019-03-19T14:01:07.996Z,25.33
2019-03-19T14:03:36.761Z,20.83
2019-03-19T14:06:04.926Z,19.30
2019-03-19T14:08:33.549Z,20.40
2019-03-19T14:11:01.859Z,41.23
2019-03-19T14:13:31.401Z,32.90
2019-03-19T14:16:02.619Z,14.93
2019-03-19T14:18:31.103Z,23.70
2019-03-19T14:20:59.450Z,89.17
2019-03-19T14:23:28.162Z,32.23
2019-03-19T14:25:56.868Z,17.00
2019-03-19T14:28:25.223Z,13.13
2019-03-19T14:30:54.126Z,23.00
2019-03-19T14:33:23.054Z,14.40
2019-03-19T14:35:51.712Z,16.30
2019-03-19T14:38:20.226Z,11.00
2019-03-19T14:40:48.946Z,13.30
2019-03-19T14:43:17.614Z,10.53
2019-03-19T14:45:46.134Z,12.53
2019-03-19T14:48:14.509Z,13.80
2019-03-19T14:50:42.881Z,12.17
2019-03-19T14:53:11.634Z,15.83
2019-03-19T14:55:40.068Z,15.27
2019-03-19T14:58:08.441Z,18.90
2019-03-19T15:00:36.851Z,23.07
2019-03-19T15:03:05.387Z,33.60
2019-03-19T15:05:33.624Z,42.90
2019-03-19T15:08:02.237Z,25.20
2019-03-19T15:10:30.535Z,96.50
2019-03-19T15:12:59.090Z,18.87
2019-03-19T15:15:27.991Z,13.60
2019-03-19T15:17:58.897Z,13.40
2019-03-19T15:20:27.833Z,14.93
2019-03-19T15:22:56.154Z,14.93
2019-03-19T15:25:24.241Z,12.10
2019-03-19T15:27:53.114Z,18.07
2019-03-19T15:30:21.803Z,21.27
2019-03-19T15:32:49.951Z,14.20
2019-03-19T15:35:18.225Z,11.93
2019-03-19T15:37:46.580Z,10.30
2019-03-19T15:40:15.440Z,12.40
2019-03-19T15:42:43.598Z,14.17
2019-03-19T15:45:12.620Z,15.97
2019-03-19T15:47:41.065Z,46.70
2019-03-19T15:50:10.577Z,35.30
2019-03-19T15:52:39.165Z,18.93
2019-03-19T15:55:07.680Z,29.07
2019-03-19T15:57:35.873Z,36.60
2019-03-19T16:00:05.940Z,35.30
2019-03-19T16:02:34.272Z,21.53
2019-03-19T16:05:02.561Z,16.77
2019-03-19T16:07:30.994Z,17.67
2019-03-19T16:09:59.151Z,27.77
2019-03-19T16:12:27.766Z,17.17
2019-03-19T16:14:56.433Z,12.70
2019-03-19T16:17:25.878Z,13.43
2019-03-19T16:19:54.189Z,13.27
2019-03-19T16:22:22.412Z,19.10
2019-03-19T16:24:50.749Z,37.83
2019-03-19T16:27:19.287Z,46.70
2019-03-19T16:29:47.494Z,39.90
2019-03-19T16:32:15.979Z,31.57
2019-03-19T16:34:44.683Z,33.33
2019-03-19T16:37:13.045Z,26.90
2019-03-19T16:39:41.645Z,23.67
2019-03-19T16:42:10.533Z,26.67
2019-03-19T16:44:39.416Z,26.93
2019-03-19T16:47:08.219Z,27.93
2019-03-19T16:49:36.834Z,25.77
2019-03-19T16:52:05.153Z,24.57
2019-03-19T16:54:34.168Z,23.53
2019-03-19T16:57:03.069Z,28.00
2019-03-19T16:59:31.291Z,21.33
2019-03-19T17:02:01.862Z,23.57
2019-03-19T17:04:29.894Z,16.80
2019-03-19T17:06:58.109Z,16.03
2019-03-19T17:09:26.313Z,23.63
2019-03-19T17:11:54.471Z,22.87
2019-03-19T17:14:23.026Z,25.70
2019-03-19T17:16:51.361Z,126.70
2019-03-19T17:19:22.078Z,89.93
2019-03-19T17:21:50.295Z,177.07
2019-03-19T17:24:18.954Z,116.93
2019-03-19T17:26:47.458Z,155.17
2019-03-19T17:29:16.210Z,157.67
2019-03-19T17:31:44.712Z,169.47
2019-03-19T17:34:13.003Z,148.10
2019-03-19T17:36:41.381Z,162.30
2019-03-19T17:39:09.749Z,155.93
2019-03-19T17:41:38.346Z,176.13
2019-03-19T17:44:06.571Z,159.33
2019-03-19T17:46:34.984Z,196.13
2019-03-19T17:49:03.380Z,191.90
2019-03-19T17:51:31.647Z,134.23
2019-03-19T17:54:00.172Z,117.90
2019-03-19T17:56:28.416Z,114.73
2019-03-19T17:58:57.110Z,110.13
2019-03-19T18:01:25.571Z,159.17
2019-03-19T18:03:53.973Z,85.03
2019-03-19T18:06:22.330Z,95.23
2019-03-19T18:08:50.609Z,89.47
2019-03-19T18:11:19.289Z,67.27
2019-03-19T18:13:47.731Z,77.57
2019-03-19T18:16:16.256Z,105.47
2019-03-19T18:18:45.483Z,93.77
2019-03-19T18:21:15.140Z,62.60
2019-03-19T18:23:43.402Z,178.30
2019-03-19T18:26:12.196Z,163.83
2019-03-19T18:28:40.413Z,170.53
2019-03-19T18:31:08.679Z,121.03
2019-03-19T18:33:36.846Z,136.53
2019-03-19T18:36:05.434Z,163.23
2019-03-19T18:38:33.584Z,174.90
2019-03-19T18:41:01.970Z,164.43
2019-03-19T18:43:30.369Z,164.70
2019-03-19T18:45:58.745Z,161.67
2019-03-19T18:48:27.203Z,158.57
2019-03-19T18:50:55.662Z,124.37
2019-03-19T18:53:23.957Z,123.63
2019-03-19T18:55:52.864Z,160.03
2019-03-19T18:58:21.095Z,164.67
2019-03-19T19:00:49.665Z,178.30
2019-03-19T19:03:31.799Z,184.73
2019-03-19T19:06:00.519Z,257.73
2019-03-19T19:08:33.485Z,264.67
2019-03-19T19:11:04.231Z,135.00
2019-03-19T19:13:32.455Z,121.37
2019-03-19T19:16:01.271Z,273.63
2019-03-19T19:18:29.681Z,110.47
2019-03-19T19:21:02.849Z,169.23
2019-03-19T19:23:34.340Z,164.10
2019-03-19T19:26:03.096Z,118.10
2019-03-19T19:28:34.021Z,118.67
2019-03-19T19:31:04.768Z,143.10
2019-03-19T19:33:33.115Z,100.17
2019-03-19T19:36:06.256Z,91.23
2019-03-19T19:38:36.962Z,157.70
2019-03-19T19:41:12.030Z,129.00
2019-03-19T19:43:42.536Z,114.50
2019-03-19T19:46:13.407Z,149.73
2019-03-19T19:48:41.739Z,145.60
2019-03-19T19:51:22.057Z,125.77
2019-03-19T19:53:55.117Z,137.43
2019-03-19T19:56:25.731Z,147.00
2019-03-19T19:58:56.716Z,174.60
2019-03-19T20:01:24.954Z,201.10
2019-03-19T20:03:55.741Z,163.43
2019-03-19T20:06:26.787Z,140.30
2019-03-19T20:08:59.643Z,137.17
2019-03-19T20:11:28.016Z,118.60
2019-03-19T20:13:56.262Z,204.53
2019-03-19T20:16:26.928Z,223.70
2019-03-19T20:18:55.252Z,196.27
2019-03-19T20:21:23.547Z,157.67
2019-03-19T20:23:53.009Z,144.90
2019-03-19T20:26:25.994Z,130.30
2019-03-19T20:28:57.565Z,113.53
2019-03-19T20:31:26.614Z,126.03
2019-03-19T20:33:57.242Z,122.50
2019-03-19T20:36:28.602Z,106.70
2019-03-19T20:39:00.072Z,89.30
2019-03-19T20:41:28.759Z,108.23
2019-03-19T20:43:57.645Z,97.03
2019-03-19T20:46:26.095Z,106.70
2019-03-19T20:48:56.654Z,94.30
2019-03-19T20:51:33.506Z,103.07
2019-03-19T20:54:04.966Z,86.77
2019-03-19T20:56:35.930Z,103.97
2019-03-19T20:59:04.405Z,61.30
2019-03-19T21:01:34.938Z,104.93
2019-03-19T21:04:03.297Z,89.20
2019-03-19T21:06:33.812Z,84.70
2019-03-19T21:09:07.846Z,102.40
2019-03-19T21:11:40.948Z,92.10
2019-03-19T21:14:11.949Z,74.60
2019-03-19T21:16:42.695Z,67.43
2019-03-19T21:19:13.537Z,61.97
2019-03-19T21:21:42.239Z,57.27
2019-03-19T21:24:11.599Z,50.77
2019-03-19T21:26:42.559Z,49.10
2019-03-19T21:29:10.816Z,360.23
2019-03-19T21:31:39.401Z,388.47
2019-03-19T21:34:07.557Z,300.87
2019-03-19T21:36:38.411Z,113.63
2019-03-19T21:39:07.108Z,252.50
2019-03-19T21:41:37.963Z,395.40
2019-03-19T21:44:08.588Z,223.03
2019-03-19T21:46:37.155Z,197.23
2019-03-19T21:49:05.375Z,159.43
2019-03-19T21:51:33.586Z,188.10
2019-03-19T21:54:04.178Z,135.77
2019-03-19T21:56:35.167Z,72.60
2019-03-19T21:59:03.441Z,63.33
2019-03-19T22:01:34.117Z,80.33
2019-03-19T22:04:03.206Z,127.47
2019-03-19T22:06:34.493Z,110.70
2019-03-19T22:09:05.845Z,84.93
2019-03-19T22:11:33.984Z,75.47
2019-03-19T22:14:05.381Z,76.80
2019-03-19T22:16:33.537Z,83.63
2019-03-19T22:19:01.693Z,76.87
2019-03-19T22:21:34.511Z,74.23
2019-03-19T22:24:03.087Z,77.57
2019-03-19T22:26:32.792Z,77.90
2019-03-19T22:29:03.400Z,57.33
2019-03-19T22:31:36.393Z,66.27
2019-03-19T22:34:14.091Z,70.10
2019-03-19T22:36:41.364Z,65.77
2019-03-19T22:39:09.616Z,64.37
2019-03-19T22:41:40.667Z,48.03
2019-03-19T22:44:17.659Z,45.03
2019-03-19T22:46:48.261Z,44.57
2019-03-19T22:49:16.414Z,48.30
2019-03-19T22:51:47.092Z,50.33
2019-03-19T22:54:15.288Z,49.97
2019-03-19T22:56:43.509Z,58.90
2019-03-19T22:59:11.861Z,53.20
2019-03-19T23:01:42.494Z,50.77
2019-03-19T23:04:15.508Z,55.23
2019-03-19T23:06:46.172Z,58.07
2019-03-19T23:09:14.416Z,54.30
2019-03-19T23:11:45.262Z,53.30
2019-03-19T23:14:13.520Z,58.43
2019-03-19T23:16:41.729Z,58.30
2019-03-19T23:19:14.736Z,58.20
2019-03-19T23:21:45.639Z,55.23
2019-03-19T23:24:13.929Z,53.67
2019-03-19T23:26:44.450Z,57.03
2019-03-19T23:29:13.635Z,54.33
2019-03-19T23:31:41.940Z,45.43
2019-03-19T23:34:12.614Z,49.63
2019-03-19T23:36:40.877Z,48.13
2019-03-19T23:39:09.485Z,55.83
2019-03-19T23:41:37.720Z,47.77
2019-03-19T23:44:06.004Z,63.87
2019-03-19T23:46:36.550Z,63.23
2019-03-19T23:49:04.740Z,68.03
2019-03-19T23:51:33.013Z,49.43
2019-03-19T23:54:01.190Z,37.20
2019-03-19T23:56:33.801Z,45.17
2019-03-19T23:59:04.591Z,39.20
